Time;durP1;ratioP1;P1;durP2;ratioP2;P2;SDS_P1;SDS_P2;PMS_P1;PMS_P2;Temp;Humidity;BMP_temperature;BMP_pressure;BME280_temperature;BME280_humidity;BME280_pressure;Samples;Min_cycle;Max_cycle;Signal;HPM_P1;HPM_P2
2023/03/31 00:02:20;;;;;;;;;;;10.10;1.00;;;;;;6217383;23;19936;-84
2023/03/31 00:05:08;;;;;;;;;;;10.10;1.00;;;;;;6215424;23;19916;-86
2023/03/31 00:08:02;;;;;;;;;;;10.10;1.00;;;;;;6215436;23;19927;-86
2023/03/31 00:10:50;;;;;;;;;;;10.10;1.00;;;;;;6215855;23;20254;-87
2023/03/31 00:13:37;;;;;;;;;;;10.00;1.00;;;;;;6215673;23;19923;-86
2023/03/31 00:16:25;;;;;;;;;;;10.00;1.00;;;;;;6214009;23;20236;-87
2023/03/31 00:19:18;;;;;;;;;;;10.00;1.00;;;;;;6216922;23;20307;-86
2023/03/31 00:22:06;;;;;;;;;;;10.00;1.00;;;;;;6217463;23;19920;-87
2023/03/31 00:24:56;;;;;;;;;;;10.00;1.00;;;;;;6216208;23;19916;-87
2023/03/31 00:27:43;;;;;;;;;;;10.00;1.00;;;;;;6215345;23;20295;-86
2023/03/31 00:30:31;;;;;;;;;;;10.00;1.00;;;;;;6217411;23;19995;-86
2023/03/31 00:33:18;;;;;;;;;;;10.00;1.00;;;;;;6216893;23;20215;-86
2023/03/31 00:36:08;;;;;;;;;;;10.00;1.00;;;;;;6214783;23;19926;-87
2023/03/31 00:39:01;;;;;;;;;;;10.10;1.00;;;;;;6215807;23;19916;-87
2023/03/31 00:41:48;;;;;;;;;;;10.10;1.00;;;;;;6216425;23;20209;-87
2023/03/31 00:44:39;;;;;;;;;;;10.10;1.00;;;;;;6216511;23;19923;-86
2023/03/31 00:47:28;;;;;;;;;;;10.20;1.00;;;;;;6216381;23;19916;-86
2023/03/31 00:50:20;;;;;;;;;;;10.20;1.00;;;;;;6215295;23;20292;-86
2023/03/31 00:53:09;;;;;;;;;;;10.30;1.00;;;;;;6216343;23;20024;-87
2023/03/31 00:56:00;;;;;;;;;;;10.40;99.90;;;;;;6215340;23;19924;-86
2023/03/31 00:58:48;;;;;;;;;;;10.30;99.90;;;;;;6216233;23;19923;-85
2023/03/31 01:01:38;;;;;;;;;;;10.40;99.90;;;;;;6215512;23;19938;-84
2023/03/31 01:04:27;;;;;;;;;;;10.40;99.90;;;;;;6216595;23;19927;-84
2023/03/31 01:07:19;;;;;;;;;;;10.40;99.90;;;;;;6216882;23;19974;-84
2023/03/31 01:10:07;;;;;;;;;;;10.30;99.90;;;;;;6215521;23;19931;-83
2023/03/31 01:12:57;;;;;;;;;;;10.30;99.90;;;;;;6216648;23;20211;-85
2023/03/31 01:15:44;;;;;;;;;;;10.30;99.90;;;;;;6217027;23;19920;-85
2023/03/31 01:18:34;;;;;;;;;;;10.30;99.90;;;;;;6214532;23;20239;-85
2023/03/31 01:21:41;;;;;;;;;;;10.20;99.90;;;;;;6214500;23;19926;-86
2023/03/31 01:24:37;;;;;;;;;;;10.20;99.90;;;;;;6214494;23;19947;-82
2023/03/31 01:27:43;;;;;;;;;;;10.20;99.90;;;;;;6215340;23;19920;-85
2023/03/31 01:30:48;;;;;;;;;;;10.20;99.90;;;;;;6214626;23;19943;-84
2023/03/31 01:33:51;;;;;;;;;;;10.20;99.90;;;;;;6215369;23;19916;-85
2023/03/31 01:36:56;;;;;;;;;;;10.20;1.00;;;;;;6215766;23;19935;-85
2023/03/31 01:39:55;;;;;;;;;;;10.00;1.00;;;;;;6215281;23;19919;-85
2023/03/31 01:43:05;;;;;;;;;;;9.90;1.00;;;;;;6215013;23;20247;-83
2023/03/31 01:46:05;;;;;;;;;;;9.70;1.00;;;;;;6215379;23;20545;-83
2023/03/31 01:49:11;;;;;;;;;;;9.70;1.00;;;;;;6214004;23;19923;-84
2023/03/31 01:51:58;;;;;;;;;;;9.70;1.00;;;;;;6215842;23;19920;-84
2023/03/31 01:54:49;;;;;;;;;;;9.60;1.00;;;;;;6217012;23;19916;-85
2023/03/31 01:57:46;;;;;;;;;;;9.50;6.10;;;;;;6213812;23;19981;-84
2023/03/31 02:00:39;;;;;;;;;;;9.40;69.80;;;;;;6214865;23;20311;-84
2023/03/31 02:03:29;;;;;;;;;;;9.30;99.90;;;;;;6216794;23;19920;-83
2023/03/31 02:06:20;;;;;;;;;;;9.30;99.90;;;;;;6217769;23;19923;-85
2023/03/31 02:09:13;;;;;;;;;;;9.20;99.90;;;;;;6216712;23;19930;-84
2023/03/31 02:12:04;;;;;;;;;;;9.10;99.90;;;;;;6215281;23;19947;-84
2023/03/31 02:15:02;;;;;;;;;;;9.10;99.90;;;;;;6215152;23;19931;-85
2023/03/31 02:17:55;;;;;;;;;;;9.00;1.00;;;;;;6215024;23;20288;-86
2023/03/31 02:20:44;;;;;;;;;;;8.90;99.90;;;;;;6214712;23;19916;-87
2023/03/31 02:23:32;;;;;;;;;;;8.80;1.00;;;;;;6215046;23;19916;-85
2023/03/31 02:26:22;;;;;;;;;;;8.70;1.00;;;;;;6216207;23;19939;-84
2023/03/31 02:29:09;;;;;;;;;;;8.70;45.60;;;;;;6217901;23;20338;-85
2023/03/31 02:32:23;;;;;;;;;;;8.60;99.90;;;;;;6216317;23;19916;-85
2023/03/31 02:35:17;;;;;;;;;;;8.70;99.90;;;;;;6217071;23;20565;-83
2023/03/31 02:38:05;;;;;;;;;;;8.50;99.90;;;;;;6218291;23;19916;-87
2023/03/31 02:40:52;;;;;;;;;;;8.50;1.00;;;;;;6216855;23;19991;-85
2023/03/31 02:43:39;;;;;;;;;;;8.50;1.00;;;;;;6217287;23;20327;-83
2023/03/31 02:46:27;;;;;;;;;;;8.40;1.00;;;;;;6217715;23;19927;-84
2023/03/31 02:49:15;;;;;;;;;;;8.40;1.00;;;;;;6215901;23;19968;-84
2023/03/31 02:52:24;;;;;;;;;;;8.40;1.00;;;;;;6216674;23;19931;-84
2023/03/31 02:55:15;;;;;;;;;;;8.40;1.00;;;;;;6216708;23;20192;-85
2023/03/31 02:58:02;;;;;;;;;;;8.30;99.90;;;;;;6217386;23;19915;-84
2023/03/31 03:01:13;;;;;;;;;;;8.30;99.90;;;;;;6216573;23;20169;-83
2023/03/31 03:04:08;;;;;;;;;;;8.20;1.00;;;;;;6217272;23;20197;-84
2023/03/31 03:07:08;;;;;;;;;;;8.20;99.90;;;;;;6216313;23;19920;-84
2023/03/31 03:10:05;;;;;;;;;;;8.10;1.00;;;;;;6214417;23;19923;-84
2023/03/31 03:12:55;;;;;;;;;;;8.00;20.00;;;;;;6217739;23;19923;-84
2023/03/31 03:15:50;;;;;;;;;;;7.90;99.90;;;;;;6217700;23;19978;-85
2023/03/31 03:18:37;;;;;;;;;;;7.90;1.00;;;;;;6216712;23;19923;-83
2023/03/31 03:21:24;;;;;;;;;;;7.80;99.90;;;;;;6215843;23;19931;-84
2023/03/31 03:24:16;;;;;;;;;;;7.80;99.90;;;;;;6215926;23;19916;-84
2023/03/31 03:27:04;;;;;;;;;;;7.70;31.10;;;;;;6216791;23;19920;-84
2023/03/31 03:29:51;;;;;;;;;;;7.70;99.90;;;;;;6215334;23;19923;-85
2023/03/31 03:32:40;;;;;;;;;;;7.80;1.00;;;;;;6214096;23;20331;-85
2023/03/31 03:35:28;;;;;;;;;;;7.80;1.00;;;;;;6216764;23;19946;-85
2023/03/31 03:38:15;;;;;;;;;;;7.80;1.00;;;;;;6216515;23;19951;-83
2023/03/31 03:41:05;;;;;;;;;;;7.80;99.90;;;;;;6216352;23;19927;-84
2023/03/31 03:43:52;;;;;;;;;;;7.90;99.90;;;;;;6215335;23;19920;-84
2023/03/31 03:46:39;;;;;;;;;;;8.00;99.90;;;;;;6216455;23;20047;-85
2023/03/31 03:49:26;;;;;;;;;;;8.00;1.00;;;;;;6216178;23;20211;-84
2023/03/31 03:52:14;;;;;;;;;;;7.90;52.00;;;;;;6216278;23;19920;-84
2023/03/31 03:55:04;;;;;;;;;;;7.90;99.90;;;;;;6216546;23;20193;-84
2023/03/31 03:57:51;;;;;;;;;;;7.80;99.90;;;;;;6216557;23;19928;-84
2023/03/31 04:00:38;;;;;;;;;;;7.80;99.90;;;;;;6217176;23;19930;-82
2023/03/31 04:03:28;;;;;;;;;;;7.80;99.90;;;;;;6218453;23;19915;-85
2023/03/31 04:06:19;;;;;;;;;;;7.80;99.90;;;;;;6219553;23;19934;-85
2023/03/31 04:09:07;;;;;;;;;;;7.80;99.90;;;;;;6217106;23;19916;-85
2023/03/31 04:11:57;;;;;;;;;;;7.80;99.90;;;;;;6215565;23;19930;-86
2023/03/31 04:14:46;;;;;;;;;;;7.70;1.00;;;;;;6215248;23;20300;-85
2023/03/31 04:17:35;;;;;;;;;;;7.60;99.90;;;;;;6215503;23;20216;-85
2023/03/31 04:20:26;;;;;;;;;;;7.60;1.00;;;;;;6215876;23;20212;-85
2023/03/31 04:23:13;;;;;;;;;;;7.60;3.00;;;;;;6213992;23;19922;-85
2023/03/31 04:26:01;;;;;;;;;;;7.50;99.90;;;;;;6215294;23;19919;-85
2023/03/31 04:28:49;;;;;;;;;;;7.50;99.90;;;;;;6215333;23;19916;-86
2023/03/31 04:31:41;;;;;;;;;;;7.60;1.00;;;;;;6215329;23;19990;-85
2023/03/31 04:34:38;;;;;;;;;;;7.60;1.00;;;;;;6214936;23;19931;-85
2023/03/31 04:37:27;;;;;;;;;;;7.70;1.00;;;;;;6217321;23;19920;-85
2023/03/31 04:40:15;;;;;;;;;;;7.70;1.00;;;;;;6216902;23;20546;-85
2023/03/31 04:43:03;;;;;;;;;;;7.70;1.00;;;;;;6216756;23;19978;-85
2023/03/31 04:46:01;;;;;;;;;;;7.70;1.00;;;;;;6213994;23;20038;-85
2023/03/31 04:48:48;;;;;;;;;;;7.70;1.00;;;;;;6214015;23;19919;-85
2023/03/31 04:51:36;;;;;;;;;;;7.60;29.80;;;;;;6217831;23;19916;-84
2023/03/31 04:54:24;;;;;;;;;;;7.60;64.20;;;;;;6215265;23;19920;-85
2023/03/31 04:57:14;;;;;;;;;;;7.60;99.90;;;;;;6214984;23;20013;-85
2023/03/31 05:00:01;;;;;;;;;;;7.60;99.90;;;;;;6216317;23;19915;-84
2023/03/31 05:02:48;;;;;;;;;;;7.70;99.90;;;;;;6214532;23;20013;-84
2023/03/31 05:05:39;;;;;;;;;;;7.60;99.90;;;;;;6215742;23;20417;-85
2023/03/31 05:08:27;;;;;;;;;;;7.60;99.90;;;;;;6215374;23;19939;-86
2023/03/31 05:11:14;;;;;;;;;;;7.60;99.90;;;;;;6214770;23;19916;-87
2023/03/31 05:14:01;;;;;;;;;;;7.70;99.90;;;;;;6215190;23;19915;-86
2023/03/31 05:16:48;;;;;;;;;;;7.70;99.90;;;;;;6216715;23;20321;-87
2023/03/31 05:19:35;;;;;;;;;;;7.70;99.90;;;;;;6214196;23;19920;-87
2023/03/31 05:22:23;;;;;;;;;;;7.80;99.90;;;;;;6216542;23;19926;-87
2023/03/31 05:25:17;;;;;;;;;;;7.80;99.90;;;;;;6216183;23;19924;-85
2023/03/31 05:28:08;;;;;;;;;;;7.90;99.90;;;;;;6210990;23;20027;-87
2023/03/31 05:30:57;;;;;;;;;;;8.00;99.90;;;;;;6215270;23;19936;-87
2023/03/31 05:49:07;;;;;;;;;;;7.90;99.90;;;;;;6212587;23;19912;-88
2023/03/31 05:51:56;;;;;;;;;;;7.90;99.90;;;;;;6215133;23;20284;-88
2023/03/31 05:54:44;;;;;;;;;;;7.90;99.90;;;;;;6213116;23;20009;-89
2023/03/31 05:57:31;;;;;;;;;;;7.90;99.90;;;;;;6195386;23;19920;-87
2023/03/31 06:00:18;;;;;;;;;;;7.90;99.90;;;;;;6189649;23;19916;-90
2023/03/31 06:03:06;;;;;;;;;;;8.00;99.90;;;;;;6217310;23;19920;-89
2023/03/31 06:05:56;;;;;;;;;;;8.00;99.90;;;;;;6214058;23;19915;-89
2023/03/31 06:08:46;;;;;;;;;;;8.00;99.90;;;;;;6195191;23;19923;-90
2023/03/31 06:12:14;;;;;;;;;;;8.10;99.90;;;;;;6198166;23;19970;-95
2023/03/31 06:15:20;;;;;;;;;;;8.10;99.90;;;;;;6098224;23;19956;-90
2023/03/31 06:22:12;;;;;;;;;;;8.10;99.90;;;;;;6132402;23;19962;-89
2023/03/31 06:24:59;;;;;;;;;;;8.20;99.90;;;;;;6174966;23;19920;-94
2023/03/31 06:27:56;;;;;;;;;;;8.10;99.90;;;;;;6215819;23;19940;-89
2023/03/31 06:39:55;;;;;;;;;;;7.60;99.90;;;;;;6267951;22;19915;-89
2023/03/31 06:42:52;;;;;;;;;;;7.60;99.90;;;;;;6245798;23;19915;-89
2023/03/31 06:45:40;;;;;;;;;;;7.60;99.90;;;;;;6266826;22;19965;-89
2023/03/31 06:48:28;;;;;;;;;;;7.60;99.90;;;;;;6253978;22;20206;-87
2023/03/31 06:51:22;;;;;;;;;;;7.70;99.90;;;;;;6275675;22;19938;-85
2023/03/31 06:54:10;;;;;;;;;;;7.80;99.90;;;;;;6253614;22;19989;-86
2023/03/31 06:56:59;;;;;;;;;;;7.90;99.90;;;;;;6276259;22;19969;-85
2023/03/31 06:59:47;;;;;;;;;;;8.20;99.90;;;;;;6251137;22;20186;-85
2023/03/31 07:02:35;;;;;;;;;;;8.30;99.90;;;;;;6253757;22;19919;-86
2023/03/31 07:05:27;;;;;;;;;;;8.40;99.90;;;;;;6276071;22;19926;-88
2023/03/31 07:08:16;;;;;;;;;;;8.40;99.90;;;;;;6274340;22;19915;-87
2023/03/31 07:11:03;;;;;;;;;;;8.40;99.90;;;;;;6275697;22;19915;-87
2023/03/31 07:13:51;;;;;;;;;;;8.40;99.90;;;;;;6274689;22;19918;-89
2023/03/31 07:16:41;;;;;;;;;;;8.40;99.90;;;;;;6279887;22;20701;-87
2023/03/31 07:19:28;;;;;;;;;;;8.40;99.90;;;;;;6275941;22;19919;-84
2023/03/31 07:22:15;;;;;;;;;;;8.30;99.90;;;;;;6273847;22;19926;-87
2023/03/31 07:25:05;;;;;;;;;;;8.30;99.90;;;;;;6255098;22;20235;-86
2023/03/31 07:27:52;;;;;;;;;;;8.30;99.90;;;;;;6256605;22;19915;-90
2023/03/31 07:30:40;;;;;;;;;;;8.20;91.00;;;;;;6278008;22;20113;-84
2023/03/31 07:33:27;;;;;;;;;;;8.20;43.20;;;;;;6276869;22;19919;-86
2023/03/31 07:36:14;;;;;;;;;;;8.40;1.00;;;;;;6256645;22;20253;-84
2023/03/31 07:39:12;;;;;;;;;;;8.50;99.90;;;;;;6276387;22;19922;-83
2023/03/31 07:42:00;;;;;;;;;;;8.60;99.90;;;;;;6254772;22;19930;-84
2023/03/31 07:44:50;;;;;;;;;;;8.70;1.00;;;;;;6263667;22;19927;-85
2023/03/31 07:47:38;;;;;;;;;;;8.70;38.20;;;;;;6245922;23;20001;-86
2023/03/31 07:50:26;;;;;;;;;;;9.00;1.00;;;;;;6224128;23;19930;-83
2023/03/31 07:53:13;;;;;;;;;;;9.10;78.20;;;;;;6247118;23;19942;-86
2023/03/31 07:56:25;;;;;;;;;;;9.20;99.90;;;;;;6245311;23;19920;-84
2023/03/31 07:59:37;;;;;;;;;;;9.00;39.50;;;;;;6190590;23;19982;-86
2023/03/31 08:02:25;;;;;;;;;;;8.80;1.00;;;;;;6244155;23;19923;-89
2023/03/31 08:05:15;;;;;;;;;;;9.20;1.00;;;;;;6224280;23;19923;-88
2023/03/31 08:08:42;;;;;;;;;;;9.60;99.90;;;;;;6244916;23;20030;-86
2023/03/31 08:11:29;;;;;;;;;;;10.10;95.30;;;;;;6245825;23;19957;-86
2023/03/31 08:14:26;;;;;;;;;;;10.60;1.00;;;;;;6221496;23;19919;-87
2023/03/31 08:18:03;;;;;;;;;;;10.70;99.90;;;;;;6230611;23;19951;-92
2023/03/31 08:21:40;;;;;;;;;;;10.80;1.00;;;;;;6123720;23;19999;-88
2023/03/31 08:25:22;;;;;;;;;;;;;;;;;;;;;
2023/03/31 08:29:07;;;;;;;;;;;;;;;;;;;;;
2023/03/31 08:32:50;;;;;;;;;;;12.50;99.90;;;;;;5981431;23;20306;-87
2023/03/31 08:36:00;;;;;;;;;;;12.80;1.00;;;;;;5982294;23;19998;-87
2023/03/31 08:39:25;;;;;;;;;;;12.80;99.90;;;;;;5981933;23;19949;-91
2023/03/31 08:42:58;;;;;;;;;;;12.90;99.90;;;;;;5984117;23;19919;-89
2023/03/31 08:46:00;;;;;;;;;;;12.80;99.90;;;;;;6056772;23;19917;-87
2023/03/31 08:53:02;;;;;;;;;;;13.60;99.90;;;;;;6259969;22;19989;-88
2023/03/31 08:56:16;;;;;;;;;;;13.50;97.20;;;;;;6040015;23;19918;-87
2023/03/31 08:59:44;;;;;;;;;;;13.60;72.00;;;;;;5999997;23;20565;-88
2023/03/31 09:07:11;;;;;;;;;;;13.50;10.00;;;;;;6088338;23;19964;-91
2023/03/31 09:10:12;;;;;;;;;;;13.50;1.00;;;;;;6076019;23;19932;-89
2023/03/31 09:17:29;;;;;;;;;;;;;;;;;;;;;
2023/03/31 09:20:47;;;;;;;;;;;12.80;1.00;;;;;;5903137;24;19920;-89
2023/03/31 09:23:56;;;;;;;;;;;13.30;1.00;;;;;;5900761;24;19920;-89
2023/03/31 09:27:11;;;;;;;;;;;13.20;1.00;;;;;;5855489;24;20304;-87
2023/03/31 09:30:27;;;;;;;;;;;;;;;;;;;;;
2023/03/31 09:37:20;;;;;;;;;;;13.10;1.00;;;;;;5930469;24;20277;-88
2023/03/31 09:44:43;;;;;;;;;;;;;;;;;;;;;
2023/03/31 09:48:49;;;;;;;;;;;14.00;99.90;;;;;;5887608;24;19942;-88
2023/03/31 09:59:02;;;;;;;;;;;13.60;99.90;;;;;;5784158;24;19967;-90
2023/03/31 10:06:16;;;;;;;;;;;13.30;99.90;;;;;;5997873;23;19932;-89
2023/03/31 10:09:05;;;;;;;;;;;13.50;99.90;;;;;;6037311;23;19929;-87
2023/03/31 10:12:23;;;;;;;;;;;14.00;99.90;;;;;;6092106;23;20339;-89
2023/03/31 10:24:04;;;;;;;;;;;;;;;;;;;;;
2023/03/31 10:46:41;;;;;;;;;;;15.50;99.90;;;;;;5927875;24;20379;-86
2023/03/31 10:49:27;;;;;;;;;;;16.50;99.90;;;;;;5931095;24;20347;-88
2023/03/31 10:52:24;;;;;;;;;;;16.10;99.90;;;;;;5923213;24;20021;-88
2023/03/31 10:55:46;;;;;;;;;;;16.10;99.90;;;;;;6068319;23;19917;-86
2023/03/31 10:58:51;;;;;;;;;;;15.50;99.90;;;;;;6127942;23;20312;-86
2023/03/31 11:02:05;;;;;;;;;;;15.30;99.90;;;;;;6155668;23;19920;-90
2023/03/31 11:05:04;;;;;;;;;;;14.90;99.90;;;;;;6139639;23;20406;-86
2023/03/31 11:07:52;;;;;;;;;;;13.80;99.90;;;;;;6155129;23;19931;-86
2023/03/31 11:10:40;;;;;;;;;;;12.90;99.90;;;;;;6155697;23;19927;-89
2023/03/31 11:13:54;;;;;;;;;;;11.80;99.90;;;;;;6155458;23;20055;-91
2023/03/31 11:17:08;;;;;;;;;;;10.90;99.90;;;;;;6275733;22;19915;-84
2023/03/31 11:20:04;;;;;;;;;;;9.90;99.90;;;;;;6230185;22;20397;-89
2023/03/31 11:22:54;;;;;;;;;;;8.50;1.00;;;;;;6255304;22;19919;-86
2023/03/31 11:25:42;;;;;;;;;;;7.40;99.90;;;;;;6279582;22;19923;-91
2023/03/31 11:28:40;;;;;;;;;;;7.20;99.90;;;;;;6279621;22;19975;-90
2023/03/31 11:31:50;;;;;;;;;;;7.30;99.90;;;;;;6277597;22;20029;-90
2023/03/31 11:35:23;;;;;;;;;;;7.30;1.00;;;;;;6259376;22;19918;-87
2023/03/31 11:38:16;;;;;;;;;;;7.40;99.90;;;;;;6278452;22;19922;-89
2023/03/31 11:41:18;;;;;;;;;;;7.40;25.40;;;;;;6277895;22;19915;-85
2023/03/31 11:45:00;;;;;;;;;;;7.40;1.00;;;;;;6277770;22;19931;-88
2023/03/31 11:48:01;;;;;;;;;;;7.60;1.00;;;;;;6276979;22;19930;-85
2023/03/31 11:51:27;;;;;;;;;;;7.80;1.00;;;;;;6261122;22;19921;-85
2023/03/31 11:54:51;;;;;;;;;;;8.10;99.90;;;;;;6256401;22;19923;-87
2023/03/31 12:20:33;;;;;;;;;;;11.70;1.00;;;;;;5899175;24;19922;-91
2023/03/31 12:23:22;;;;;;;;;;;12.40;1.00;;;;;;5935683;23;19914;-90
2023/03/31 12:26:14;;;;;;;;;;;12.50;1.00;;;;;;6151313;23;19927;-93
2023/03/31 12:29:15;;;;;;;;;;;12.30;99.90;;;;;;6185146;23;19920;-88
2023/03/31 12:32:16;;;;;;;;;;;13.00;99.90;;;;;;6184881;23;19951;-91
2023/03/31 12:35:04;;;;;;;;;;;13.80;99.90;;;;;;6164342;23;19916;-88
2023/03/31 12:38:14;;;;;;;;;;;14.60;99.90;;;;;;6187702;23;19924;-90
2023/03/31 12:41:28;;;;;;;;;;;14.50;99.90;;;;;;6187295;23;19917;-91
2023/03/31 12:44:21;;;;;;;;;;;14.10;99.90;;;;;;6169134;23;19920;-88
2023/03/31 12:47:12;;;;;;;;;;;14.00;99.90;;;;;;6169765;22;20016;-93
2023/03/31 12:50:15;;;;;;;;;;;14.30;99.90;;;;;;6255378;22;19926;-91
2023/03/31 12:53:10;;;;;;;;;;;14.70;99.90;;;;;;6256731;22;20008;-92
2023/03/31 12:55:59;;;;;;;;;;;15.10;99.90;;;;;;6279012;22;19919;-89
2023/03/31 12:58:47;;;;;;;;;;;15.90;99.90;;;;;;6282177;22;19919;-89
2023/03/31 13:01:55;;;;;;;;;;;15.10;99.90;;;;;;6282207;22;19925;-91
2023/03/31 13:04:42;;;;;;;;;;;13.70;99.90;;;;;;6258788;22;19915;-94
2023/03/31 13:07:30;;;;;;;;;;;13.40;99.90;;;;;;6260101;22;19961;-92
2023/03/31 13:10:20;;;;;;;;;;;12.90;99.90;;;;;;6284347;22;19926;-93
2023/03/31 13:13:14;;;;;;;;;;;12.50;99.90;;;;;;6283963;22;19922;-92
2023/03/31 13:16:02;;;;;;;;;;;11.80;99.90;;;;;;6285884;22;20201;-92
2023/03/31 13:18:51;;;;;;;;;;;11.60;99.90;;;;;;6284216;22;19925;-94
2023/03/31 13:21:51;;;;;;;;;;;11.30;99.90;;;;;;6286068;22;19938;-93
2023/03/31 13:24:38;;;;;;;;;;;11.10;99.90;;;;;;6286331;22;19926;-93
2023/03/31 13:27:31;;;;;;;;;;;10.60;99.90;;;;;;6263812;22;19919;-89
2023/03/31 13:30:37;;;;;;;;;;;9.70;1.00;;;;;;6262537;22;20270;-92
2023/03/31 13:33:27;;;;;;;;;;;9.20;15.90;;;;;;6280300;22;19954;-90
2023/03/31 13:36:21;;;;;;;;;;;8.30;67.20;;;;;;6261158;22;19948;-89
2023/03/31 13:39:27;;;;;;;;;;;7.60;99.90;;;;;;6257959;22;19922;-92
2023/03/31 13:42:36;;;;;;;;;;;7.40;1.00;;;;;;6280952;22;19926;-92
2023/03/31 13:45:24;;;;;;;;;;;7.30;99.90;;;;;;6262285;22;19918;-92
2023/03/31 13:48:18;;;;;;;;;;;7.20;99.90;;;;;;6260622;22;19958;-92
2023/03/31 13:51:28;;;;;;;;;;;7.20;1.00;;;;;;6263346;22;19915;-91
2023/03/31 13:54:22;;;;;;;;;;;7.20;99.90;;;;;;6292580;22;19919;-91
2023/03/31 13:57:28;;;;;;;;;;;7.10;99.90;;;;;;6293267;22;19938;-91
2023/03/31 14:00:16;;;;;;;;;;;7.10;99.90;;;;;;6292616;22;19929;-86
2023/03/31 14:03:16;;;;;;;;;;;7.20;1.00;;;;;;6267362;22;19921;-87
2023/03/31 14:06:05;;;;;;;;;;;7.60;99.90;;;;;;6289515;22;20357;-89
2023/03/31 14:08:55;;;;;;;;;;;9.10;99.90;;;;;;6262586;22;19922;-87
2023/03/31 14:11:43;;;;;;;;;;;10.90;99.90;;;;;;6283941;22;19990;-88
2023/03/31 14:14:31;;;;;;;;;;;12.00;1.00;;;;;;6283654;22;20317;-89
2023/03/31 14:17:18;;;;;;;;;;;12.40;99.90;;;;;;6262096;22;19915;-91
2023/03/31 14:20:09;;;;;;;;;;;12.70;94.90;;;;;;6293895;22;19914;-88
2023/03/31 14:22:57;;;;;;;;;;;10.90;1.00;;;;;;6270577;22;19948;-85
2023/03/31 14:25:53;;;;;;;;;;;9.50;1.00;;;;;;6271096;22;20294;-88
2023/03/31 14:28:41;;;;;;;;;;;9.00;99.90;;;;;;6289666;22;19991;-85
2023/03/31 14:31:40;;;;;;;;;;;9.10;99.90;;;;;;6290626;22;20174;-85
2023/03/31 14:34:27;;;;;;;;;;;10.60;99.90;;;;;;6292430;22;19946;-84
2023/03/31 14:37:16;;;;;;;;;;;11.80;99.90;;;;;;6289754;22;19943;-85
2023/03/31 14:40:04;;;;;;;;;;;12.50;1.00;;;;;;6264546;22;19926;-88
2023/03/31 14:42:54;;;;;;;;;;;12.90;1.00;;;;;;6286032;22;19915;-86
2023/03/31 14:45:42;;;;;;;;;;;12.40;1.00;;;;;;6286230;22;19919;-88
2023/03/31 14:48:33;;;;;;;;;;;12.60;1.00;;;;;;6284104;22;19982;-86
2023/03/31 14:51:25;;;;;;;;;;;12.90;1.00;;;;;;6280295;22;19945;-87
2023/03/31 14:54:17;;;;;;;;;;;12.70;99.90;;;;;;6278722;22;19915;-87
2023/03/31 14:57:05;;;;;;;;;;;12.80;99.90;;;;;;6276489;22;19927;-88
2023/03/31 14:59:53;;;;;;;;;;;13.10;99.90;;;;;;6277273;22;20290;-90
2023/03/31 15:02:41;;;;;;;;;;;13.20;99.90;;;;;;6254975;22;19915;-87
2023/03/31 15:05:30;;;;;;;;;;;13.00;99.90;;;;;;6277347;22;19915;-87
2023/03/31 15:08:21;;;;;;;;;;;13.10;99.90;;;;;;6255563;22;19916;-91
2023/03/31 15:11:12;;;;;;;;;;;13.10;99.90;;;;;;6253008;22;20295;-91
2023/03/31 15:14:01;;;;;;;;;;;13.00;99.90;;;;;;6254476;22;19923;-89
2023/03/31 15:16:51;;;;;;;;;;;12.50;99.90;;;;;;6276413;22;19929;-87
2023/03/31 15:19:39;;;;;;;;;;;11.60;99.90;;;;;;6254465;22;19926;-88
2023/03/31 15:22:27;;;;;;;;;;;11.00;99.90;;;;;;6277999;22;19922;-86
2023/03/31 15:25:17;;;;;;;;;;;10.70;99.90;;;;;;6278566;22;19919;-88
2023/03/31 15:28:06;;;;;;;;;;;10.50;1.00;;;;;;6257363;22;19915;-89
2023/03/31 15:30:59;;;;;;;;;;;10.30;1.00;;;;;;6254602;22;19915;-88
2023/03/31 15:33:55;;;;;;;;;;;10.10;1.00;;;;;;6278914;22;19919;-86
2023/03/31 15:36:43;;;;;;;;;;;10.10;1.00;;;;;;6278630;22;19915;-90
2023/03/31 15:39:31;;;;;;;;;;;10.20;1.00;;;;;;6280139;22;20022;-87
2023/03/31 15:42:21;;;;;;;;;;;10.10;1.00;;;;;;6278033;22;19919;-90
2023/03/31 15:45:08;;;;;;;;;;;10.00;1.00;;;;;;6279004;22;19934;-87
2023/03/31 15:47:55;;;;;;;;;;;9.90;1.00;;;;;;6255477;22;19915;-88
2023/03/31 15:50:43;;;;;;;;;;;9.90;1.00;;;;;;6279713;22;20004;-88
2023/03/31 15:53:52;;;;;;;;;;;9.90;1.00;;;;;;6278132;22;19915;-88
2023/03/31 15:56:49;;;;;;;;;;;9.90;1.00;;;;;;6278940;22;19922;-87
2023/03/31 15:59:43;;;;;;;;;;;9.90;1.00;;;;;;6282809;22;20381;-87
2023/03/31 16:02:50;;;;;;;;;;;9.80;1.00;;;;;;6263167;22;20256;-87
2023/03/31 16:05:41;;;;;;;;;;;9.70;1.00;;;;;;6277791;22;19967;-88
2023/03/31 16:08:42;;;;;;;;;;;9.70;1.00;;;;;;6278597;22;19923;-91
2023/03/31 16:11:37;;;;;;;;;;;9.60;1.00;;;;;;6278295;22;20312;-85
2023/03/31 16:14:29;;;;;;;;;;;9.60;1.00;;;;;;6236022;22;19919;-89
2023/03/31 16:17:22;;;;;;;;;;;9.60;1.00;;;;;;6256067;22;19918;-87
2023/03/31 16:20:16;;;;;;;;;;;9.50;31.30;;;;;;6279331;22;20044;-85
2023/03/31 16:23:24;;;;;;;;;;;9.10;99.90;;;;;;6278105;22;19926;-85
2023/03/31 16:26:12;;;;;;;;;;;8.80;1.00;;;;;;6279005;22;19915;-87
2023/03/31 16:28:59;;;;;;;;;;;8.60;99.90;;;;;;6280289;22;19915;-88
2023/03/31 16:32:05;;;;;;;;;;;8.40;93.00;;;;;;6255878;22;19919;-85
2023/03/31 16:34:52;;;;;;;;;;;8.40;99.90;;;;;;6277149;22;20422;-86
2023/03/31 16:37:40;;;;;;;;;;;8.20;99.90;;;;;;6278154;22;19989;-86
2023/03/31 16:40:34;;;;;;;;;;;8.00;4.20;;;;;;6277150;22;19926;-85
2023/03/31 16:43:26;;;;;;;;;;;7.80;99.90;;;;;;6277640;22;19926;-86
2023/03/31 16:46:13;;;;;;;;;;;7.70;99.90;;;;;;6278087;22;19934;-86
2023/03/31 16:49:02;;;;;;;;;;;7.70;57.40;;;;;;6254947;22;19915;-86
2023/03/31 16:51:51;;;;;;;;;;;7.60;1.00;;;;;;6256540;22;20303;-88
2023/03/31 16:54:43;;;;;;;;;;;7.70;17.30;;;;;;6277125;22;19915;-86
2023/03/31 16:57:32;;;;;;;;;;;7.70;99.90;;;;;;6256077;22;19915;-85
2023/03/31 17:00:19;;;;;;;;;;;7.70;99.90;;;;;;6254959;22;19927;-86
2023/03/31 17:03:07;;;;;;;;;;;7.70;99.90;;;;;;6257147;22;19915;-90
2023/03/31 17:05:56;;;;;;;;;;;7.70;3.90;;;;;;6278176;22;19915;-86
2023/03/31 17:08:47;;;;;;;;;;;7.70;99.90;;;;;;6255470;22;20298;-87
2023/03/31 17:11:36;;;;;;;;;;;7.60;99.90;;;;;;6277177;22;19915;-85
2023/03/31 17:14:23;;;;;;;;;;;7.50;99.90;;;;;;6255084;22;20130;-88
2023/03/31 17:17:10;;;;;;;;;;;7.50;1.00;;;;;;6277858;22;19923;-89
2023/03/31 17:33:02;;;;;;;8.43;3.17;;;7.30;1.00;;;;;;4914660;22;29894209;-84
2023/03/31 17:40:05;;;;;;;4.55;2.17;;;7.30;25.30;;;;;;6161731;23;20312;-86
2023/03/31 17:43:07;;;;;;;9.70;1.75;;;7.40;99.90;;;;;;6158420;23;20025;-88
2023/03/31 17:46:16;;;;;;;6.45;2.50;;;7.40;99.90;;;;;;6137947;23;20037;-87
2023/03/31 17:49:07;;;;;;;8.57;2.80;;;7.40;25.60;;;;;;6161151;23;20021;-87
2023/03/31 17:51:56;;;;;;;5.15;1.80;;;7.50;99.90;;;;;;6141011;23;20025;-88
2023/03/31 17:55:19;;;;;;;9.40;2.85;;;7.40;1.00;;;;;;6142795;23;20056;-90
2023/03/31 17:58:13;;;;;;;13.60;3.28;;;7.60;37.40;;;;;;6161735;23;20063;-87
2023/03/31 18:01:10;;;;;;;9.32;2.53;;;7.60;99.90;;;;;;6158521;23;20131;-89
2023/03/31 18:03:58;;;;;;;14.93;5.72;;;7.70;24.20;;;;;;6137848;23;20060;-88
2023/03/31 18:06:47;;;;;;;5.80;2.65;;;7.70;1.00;;;;;;6139243;23;20347;-88
2023/03/31 18:09:36;;;;;;;9.43;2.67;;;7.70;1.00;;;;;;6158395;23;20078;-89
2023/03/31 18:12:27;;;;;;;6.63;2.55;;;7.70;65.50;;;;;;6159334;23;20025;-87
2023/03/31 18:15:21;;;;;;;9.07;2.17;;;7.70;1.00;;;;;;6159322;23;20128;-88
2023/03/31 18:18:09;;;;;;;14.27;2.88;;;7.70;99.90;;;;;;6157794;23;20509;-86
2023/03/31 18:21:02;;;;;;;5.35;2.25;;;7.80;99.90;;;;;;6156077;23;20021;-89
2023/03/31 18:23:53;;;;;;;9.07;3.13;;;7.80;23.50;;;;;;6157364;23;20036;-86
2023/03/31 18:26:44;;;;;;;6.35;2.08;;;7.80;88.60;;;;;;6136841;23;20094;-84
2023/03/31 18:29:38;;;;;;;6.10;2.42;;;7.80;1.00;;;;;;6158326;23;20057;-88
2023/03/31 18:32:26;;;;;;;7.70;2.33;;;7.80;1.00;;;;;;6154271;23;20104;-91
2023/03/31 18:35:16;;;;;;;9.68;2.15;;;7.70;1.00;;;;;;6132345;23;20041;-89
2023/03/31 18:38:27;;;;;;;11.05;2.45;;;7.80;1.00;;;;;;6151338;23;20044;-89
2023/03/31 18:41:18;;;;;;;10.35;2.53;;;7.80;1.00;;;;;;6150902;23;20022;-88
2023/03/31 18:44:06;;;;;;;7.78;2.20;;;7.80;1.00;;;;;;6151343;23;20096;-87
2023/03/31 18:46:53;;;;;;;5.72;1.85;;;7.80;1.00;;;;;;6132327;23;20363;-88
2023/03/31 18:49:47;;;;;;;7.20;2.45;;;7.80;1.00;;;;;;6154055;23;20025;-90
2023/03/31 18:52:37;;;;;;;9.75;2.53;;;7.80;1.00;;;;;;6152479;23;20029;-87
2023/03/31 18:59:32;;;;;;;10.07;2.08;;;7.70;1.00;;;;;;6151488;23;20005;-89
2023/03/31 19:02:23;;;;;;;7.50;2.03;;;7.80;1.00;;;;;;6129976;23;20106;-89
2023/03/31 19:05:11;;;;;;;9.90;2.00;;;7.80;1.00;;;;;;6150513;23;20460;-89
2023/03/31 19:08:03;;;;;;;6.15;2.33;;;7.70;1.00;;;;;;6133965;23;20026;-89
2023/03/31 19:11:06;;;;;;;7.57;2.30;;;7.80;1.00;;;;;;6131579;23;20029;-87
2023/03/31 19:14:05;;;;;;;8.15;1.95;;;7.80;1.00;;;;;;6112935;23;20029;-88
2023/03/31 19:16:53;;;;;;;7.68;2.15;;;7.70;1.00;;;;;;6128844;23;20029;-85
2023/03/31 19:19:41;;;;;;;5.53;2.00;;;7.70;1.00;;;;;;6155508;22;20039;-90
2023/03/31 19:22:28;;;;;;;7.85;1.80;;;7.60;1.00;;;;;;6140298;23;20021;-89